sensor_id;sensor_type;location;lat;lon;timestamp;temperature;humidity
13707;DHT22;6925;47.816;13.072;2023-05-07T00:01:09;15.80;82.20
13707;DHT22;6925;47.816;13.072;2023-05-07T00:03:38;15.80;82.30
13707;DHT22;6925;47.816;13.072;2023-05-07T00:06:05;15.80;82.20
13707;DHT22;6925;47.816;13.072;2023-05-07T00:08:32;15.80;82.30
13707;DHT22;6925;47.816;13.072;2023-05-07T00:10:59;15.80;82.60
13707;DHT22;6925;47.816;13.072;2023-05-07T00:13:26;15.80;82.70
13707;DHT22;6925;47.816;13.072;2023-05-07T00:15:56;15.80;82.80
13707;DHT22;6925;47.816;13.072;2023-05-07T00:18:23;15.70;82.70
13707;DHT22;6925;47.816;13.072;2023-05-07T00:20:52;15.70;82.70
13707;DHT22;6925;47.816;13.072;2023-05-07T00:23:19;15.70;82.40
13707;DHT22;6925;47.816;13.072;2023-05-07T00:25:46;15.70;82.40
13707;DHT22;6925;47.816;13.072;2023-05-07T00:28:13;15.60;82.70
13707;DHT22;6925;47.816;13.072;2023-05-07T00:30:40;15.60;82.80
13707;DHT22;6925;47.816;13.072;2023-05-07T00:33:07;15.60;82.70
13707;DHT22;6925;47.816;13.072;2023-05-07T00:35:34;15.60;82.50
13707;DHT22;6925;47.816;13.072;2023-05-07T00:38:03;15.60;82.80
13707;DHT22;6925;47.816;13.072;2023-05-07T00:40:30;15.50;82.90
13707;DHT22;6925;47.816;13.072;2023-05-07T00:42:57;15.50;82.80
13707;DHT22;6925;47.816;13.072;2023-05-07T00:45:26;15.50;83.20
13707;DHT22;6925;47.816;13.072;2023-05-07T00:47:54;15.50;83.10
13707;DHT22;6925;47.816;13.072;2023-05-07T00:50:22;15.50;83.10
13707;DHT22;6925;47.816;13.072;2023-05-07T00:52:49;15.50;83.10
13707;DHT22;6925;47.816;13.072;2023-05-07T00:55:18;15.40;83.30
13707;DHT22;6925;47.816;13.072;2023-05-07T00:57:45;15.40;83.50
13707;DHT22;6925;47.816;13.072;2023-05-07T01:00:13;15.40;83.50
13707;DHT22;6925;47.816;13.072;2023-05-07T01:02:40;15.40;83.30
13707;DHT22;6925;47.816;13.072;2023-05-07T01:05:10;15.40;83.70
13707;DHT22;6925;47.816;13.072;2023-05-07T01:07:38;15.40;84.30
13707;DHT22;6925;47.816;13.072;2023-05-07T01:10:07;15.40;84.50
13707;DHT22;6925;47.816;13.072;2023-05-07T01:12:37;15.50;84.60
13707;DHT22;6925;47.816;13.072;2023-05-07T01:15:06;15.50;84.60
13707;DHT22;6925;47.816;13.072;2023-05-07T01:17:35;15.50;84.20
13707;DHT22;6925;47.816;13.072;2023-05-07T01:20:03;15.50;84.00
13707;DHT22;6925;47.816;13.072;2023-05-07T01:22:33;15.50;84.10
13707;DHT22;6925;47.816;13.072;2023-05-07T01:25:02;15.40;84.00
13707;DHT22;6925;47.816;13.072;2023-05-07T01:27:30;15.40;84.10
13707;DHT22;6925;47.816;13.072;2023-05-07T01:29:58;15.40;84.20
13707;DHT22;6925;47.816;13.072;2023-05-07T01:32:35;15.40;84.10
13707;DHT22;6925;47.816;13.072;2023-05-07T01:35:07;15.40;84.20
13707;DHT22;6925;47.816;13.072;2023-05-07T01:37:38;15.30;84.10
13707;DHT22;6925;47.816;13.072;2023-05-07T01:40:07;15.30;84.10
13707;DHT22;6925;47.816;13.072;2023-05-07T01:42:35;15.30;84.20
13707;DHT22;6925;47.816;13.072;2023-05-07T01:45:03;15.30;84.40
13707;DHT22;6925;47.816;13.072;2023-05-07T01:47:30;15.30;84.20
13707;DHT22;6925;47.816;13.072;2023-05-07T01:49:58;15.30;84.40
13707;DHT22;6925;47.816;13.072;2023-05-07T01:52:25;15.30;84.30
13707;DHT22;6925;47.816;13.072;2023-05-07T01:54:53;15.30;84.00
13707;DHT22;6925;47.816;13.072;2023-05-07T01:57:21;15.30;84.20
13707;DHT22;6925;47.816;13.072;2023-05-07T01:59:48;15.20;84.70
13707;DHT22;6925;47.816;13.072;2023-05-07T02:02:16;15.20;84.70
13707;DHT22;6925;47.816;13.072;2023-05-07T02:04:43;15.20;84.50
13707;DHT22;6925;47.816;13.072;2023-05-07T02:07:10;15.20;84.30
13707;DHT22;6925;47.816;13.072;2023-05-07T02:09:37;15.20;84.70
13707;DHT22;6925;47.816;13.072;2023-05-07T02:12:06;15.20;84.80
13707;DHT22;6925;47.816;13.072;2023-05-07T02:14:33;15.20;84.60
13707;DHT22;6925;47.816;13.072;2023-05-07T02:17:00;15.20;84.70
13707;DHT22;6925;47.816;13.072;2023-05-07T02:19:27;15.20;84.60
13707;DHT22;6925;47.816;13.072;2023-05-07T02:21:54;15.10;84.70
13707;DHT22;6925;47.816;13.072;2023-05-07T02:24:21;15.10;84.70
13707;DHT22;6925;47.816;13.072;2023-05-07T02:26:48;15.10;84.70
13707;DHT22;6925;47.816;13.072;2023-05-07T02:29:17;15.10;84.60
13707;DHT22;6925;47.816;13.072;2023-05-07T02:31:44;15.10;84.50
13707;DHT22;6925;47.816;13.072;2023-05-07T02:34:11;15.10;84.60
13707;DHT22;6925;47.816;13.072;2023-05-07T02:36:38;15.00;84.70
13707;DHT22;6925;47.816;13.072;2023-05-07T02:39:05;15.10;84.90
13707;DHT22;6925;47.816;13.072;2023-05-07T02:41:32;15.00;84.80
13707;DHT22;6925;47.816;13.072;2023-05-07T02:43:59;15.00;84.60
13707;DHT22;6925;47.816;13.072;2023-05-07T02:46:27;15.00;84.70
13707;DHT22;6925;47.816;13.072;2023-05-07T02:48:55;15.00;84.50
13707;DHT22;6925;47.816;13.072;2023-05-07T02:51:22;15.00;84.90
13707;DHT22;6925;47.816;13.072;2023-05-07T02:53:49;14.90;84.80
13707;DHT22;6925;47.816;13.072;2023-05-07T02:56:16;14.90;84.80
13707;DHT22;6925;47.816;13.072;2023-05-07T02:58:44;14.90;84.80
13707;DHT22;6925;47.816;13.072;2023-05-07T03:01:11;14.90;84.80
13707;DHT22;6925;47.816;13.072;2023-05-07T03:03:40;14.90;85.00
13707;DHT22;6925;47.816;13.072;2023-05-07T03:06:08;14.90;85.10
13707;DHT22;6925;47.816;13.072;2023-05-07T03:08:35;14.90;85.20
13707;DHT22;6925;47.816;13.072;2023-05-07T03:11:02;14.90;85.10
13707;DHT22;6925;47.816;13.072;2023-05-07T03:13:30;14.80;85.00
13707;DHT22;6925;47.816;13.072;2023-05-07T03:15:57;14.90;85.10
13707;DHT22;6925;47.816;13.072;2023-05-07T03:18:24;14.80;85.00
13707;DHT22;6925;47.816;13.072;2023-05-07T03:20:52;14.80;85.20
13707;DHT22;6925;47.816;13.072;2023-05-07T03:23:19;14.80;85.20
13707;DHT22;6925;47.816;13.072;2023-05-07T03:25:46;14.80;85.20
13707;DHT22;6925;47.816;13.072;2023-05-07T03:28:13;14.80;85.20
13707;DHT22;6925;47.816;13.072;2023-05-07T03:30:40;14.80;85.10
13707;DHT22;6925;47.816;13.072;2023-05-07T03:33:07;14.80;85.40
13707;DHT22;6925;47.816;13.072;2023-05-07T03:35:34;14.80;85.40
13707;DHT22;6925;47.816;13.072;2023-05-07T03:38:03;14.80;85.50
13707;DHT22;6925;47.816;13.072;2023-05-07T03:40:31;14.80;85.60
13707;DHT22;6925;47.816;13.072;2023-05-07T03:42:58;14.80;85.40
13707;DHT22;6925;47.816;13.072;2023-05-07T03:45:26;14.80;85.40
13707;DHT22;6925;47.816;13.072;2023-05-07T03:47:53;14.80;85.30
13707;DHT22;6925;47.816;13.072;2023-05-07T03:50:20;14.80;85.60
13707;DHT22;6925;47.816;13.072;2023-05-07T03:52:47;14.70;85.30
13707;DHT22;6925;47.816;13.072;2023-05-07T03:55:15;14.80;85.60
13707;DHT22;6925;47.816;13.072;2023-05-07T03:57:43;14.80;85.60
13707;DHT22;6925;47.816;13.072;2023-05-07T04:00:11;14.70;85.50
13707;DHT22;6925;47.816;13.072;2023-05-07T04:02:39;14.70;85.70
13707;DHT22;6925;47.816;13.072;2023-05-07T04:05:06;14.70;85.60
13707;DHT22;6925;47.816;13.072;2023-05-07T04:07:33;14.70;85.70
13707;DHT22;6925;47.816;13.072;2023-05-07T04:10:00;14.70;85.60
13707;DHT22;6925;47.816;13.072;2023-05-07T04:12:29;14.70;85.70
13707;DHT22;6925;47.816;13.072;2023-05-07T04:14:56;14.70;85.60
13707;DHT22;6925;47.816;13.072;2023-05-07T04:17:23;14.70;85.70
13707;DHT22;6925;47.816;13.072;2023-05-07T04:19:50;14.70;85.80
13707;DHT22;6925;47.816;13.072;2023-05-07T04:22:17;14.70;85.60
13707;DHT22;6925;47.816;13.072;2023-05-07T04:24:44;14.70;85.70
13707;DHT22;6925;47.816;13.072;2023-05-07T04:27:11;14.70;85.80
13707;DHT22;6925;47.816;13.072;2023-05-07T04:29:40;14.70;86.00
13707;DHT22;6925;47.816;13.072;2023-05-07T04:32:08;14.80;85.90
13707;DHT22;6925;47.816;13.072;2023-05-07T04:34:35;14.70;85.90
13707;DHT22;6925;47.816;13.072;2023-05-07T04:37:02;14.70;86.00
13707;DHT22;6925;47.816;13.072;2023-05-07T04:39:29;14.70;86.20
13707;DHT22;6925;47.816;13.072;2023-05-07T04:41:57;14.70;86.40
13707;DHT22;6925;47.816;13.072;2023-05-07T04:44:24;14.70;86.60
13707;DHT22;6925;47.816;13.072;2023-05-07T04:46:52;14.80;86.80
13707;DHT22;6925;47.816;13.072;2023-05-07T04:49:19;14.80;86.70
13707;DHT22;6925;47.816;13.072;2023-05-07T04:51:46;14.80;86.60
13707;DHT22;6925;47.816;13.072;2023-05-07T04:54:13;14.90;86.50
13707;DHT22;6925;47.816;13.072;2023-05-07T04:56:40;14.90;86.80
13707;DHT22;6925;47.816;13.072;2023-05-07T04:59:07;14.90;86.80
13707;DHT22;6925;47.816;13.072;2023-05-07T05:01:35;15.00;87.00
13707;DHT22;6925;47.816;13.072;2023-05-07T05:04:03;15.00;87.00
13707;DHT22;6925;47.816;13.072;2023-05-07T05:06:30;15.00;86.90
13707;DHT22;6925;47.816;13.072;2023-05-07T05:08:57;15.00;86.70
13707;DHT22;6925;47.816;13.072;2023-05-07T05:11:24;15.00;86.70
13707;DHT22;6925;47.816;13.072;2023-05-07T05:13:52;15.00;86.40
13707;DHT22;6925;47.816;13.072;2023-05-07T05:16:19;15.00;86.20
13707;DHT22;6925;47.816;13.072;2023-05-07T05:18:46;15.10;86.40
13707;DHT22;6925;47.816;13.072;2023-05-07T05:21:14;15.10;86.50
13707;DHT22;6925;47.816;13.072;2023-05-07T05:23:41;15.10;86.40
13707;DHT22;6925;47.816;13.072;2023-05-07T05:26:09;15.10;86.50
13707;DHT22;6925;47.816;13.072;2023-05-07T05:28:36;15.20;86.70
13707;DHT22;6925;47.816;13.072;2023-05-07T05:31:04;15.20;86.90
13707;DHT22;6925;47.816;13.072;2023-05-07T05:33:31;15.20;87.30
13707;DHT22;6925;47.816;13.072;2023-05-07T05:35:58;15.20;87.60
13707;DHT22;6925;47.816;13.072;2023-05-07T05:38:26;15.30;87.90
13707;DHT22;6925;47.816;13.072;2023-05-07T05:40:53;15.30;87.90
13707;DHT22;6925;47.816;13.072;2023-05-07T05:43:20;15.40;87.90
13707;DHT22;6925;47.816;13.072;2023-05-07T05:45:47;15.40;87.90
13707;DHT22;6925;47.816;13.072;2023-05-07T05:48:15;15.40;88.40
13707;DHT22;6925;47.816;13.072;2023-05-07T05:50:42;15.50;88.30
13707;DHT22;6925;47.816;13.072;2023-05-07T05:53:09;15.50;88.60
13707;DHT22;6925;47.816;13.072;2023-05-07T05:55:37;15.50;88.80
13707;DHT22;6925;47.816;13.072;2023-05-07T05:58:04;15.60;88.80
13707;DHT22;6925;47.816;13.072;2023-05-07T06:00:32;15.60;88.40
13707;DHT22;6925;47.816;13.072;2023-05-07T06:02:59;15.60;87.30
13707;DHT22;6925;47.816;13.072;2023-05-07T06:05:26;15.60;87.50
13707;DHT22;6925;47.816;13.072;2023-05-07T06:07:53;15.60;87.50
13707;DHT22;6925;47.816;13.072;2023-05-07T06:10:20;15.60;87.20
13707;DHT22;6925;47.816;13.072;2023-05-07T06:12:49;15.60;87.30
13707;DHT22;6925;47.816;13.072;2023-05-07T06:15:16;15.60;87.70
13707;DHT22;6925;47.816;13.072;2023-05-07T06:17:43;15.50;87.60
13707;DHT22;6925;47.816;13.072;2023-05-07T06:20:10;15.60;87.60
13707;DHT22;6925;47.816;13.072;2023-05-07T06:22:38;15.60;87.70
13707;DHT22;6925;47.816;13.072;2023-05-07T06:25:06;15.60;86.80
13707;DHT22;6925;47.816;13.072;2023-05-07T06:27:33;15.60;87.40
13707;DHT22;6925;47.816;13.072;2023-05-07T06:30:02;15.60;87.10
13707;DHT22;6925;47.816;13.072;2023-05-07T06:32:29;15.60;87.70
13707;DHT22;6925;47.816;13.072;2023-05-07T06:34:56;15.70;87.90
13707;DHT22;6925;47.816;13.072;2023-05-07T06:37:23;15.80;88.10
13707;DHT22;6925;47.816;13.072;2023-05-07T06:39:50;15.80;87.50
13707;DHT22;6925;47.816;13.072;2023-05-07T06:42:18;15.80;87.30
13707;DHT22;6925;47.816;13.072;2023-05-07T06:44:45;15.90;87.50
13707;DHT22;6925;47.816;13.072;2023-05-07T06:47:13;15.90;87.50
13707;DHT22;6925;47.816;13.072;2023-05-07T06:49:40;15.90;87.50
13707;DHT22;6925;47.816;13.072;2023-05-07T06:52:07;16.00;87.70
13707;DHT22;6925;47.816;13.072;2023-05-07T06:54:34;16.00;87.50
13707;DHT22;6925;47.816;13.072;2023-05-07T06:57:02;16.00;87.40
13707;DHT22;6925;47.816;13.072;2023-05-07T06:59:29;16.10;87.40
13707;DHT22;6925;47.816;13.072;2023-05-07T07:01:56;16.10;87.80
13707;DHT22;6925;47.816;13.072;2023-05-07T07:04:24;16.10;86.90
13707;DHT22;6925;47.816;13.072;2023-05-07T07:06:52;16.10;87.50
13707;DHT22;6925;47.816;13.072;2023-05-07T07:09:19;16.10;87.70
13707;DHT22;6925;47.816;13.072;2023-05-07T07:11:46;16.20;87.50
13707;DHT22;6925;47.816;13.072;2023-05-07T07:14:14;16.20;87.60
13707;DHT22;6925;47.816;13.072;2023-05-07T07:16:41;16.20;87.50
13707;DHT22;6925;47.816;13.072;2023-05-07T07:19:08;16.20;87.50
13707;DHT22;6925;47.816;13.072;2023-05-07T07:21:36;16.30;87.70
13707;DHT22;6925;47.816;13.072;2023-05-07T07:24:04;16.30;87.50
13707;DHT22;6925;47.816;13.072;2023-05-07T07:26:31;16.30;86.70
13707;DHT22;6925;47.816;13.072;2023-05-07T07:28:58;16.40;87.20
13707;DHT22;6925;47.816;13.072;2023-05-07T07:31:25;16.40;86.30
13707;DHT22;6925;47.816;13.072;2023-05-07T07:33:52;16.40;86.20
13707;DHT22;6925;47.816;13.072;2023-05-07T07:36:20;16.40;86.30
13707;DHT22;6925;47.816;13.072;2023-05-07T07:38:48;16.40;86.60
13707;DHT22;6925;47.816;13.072;2023-05-07T07:41:15;16.50;87.10
13707;DHT22;6925;47.816;13.072;2023-05-07T07:43:42;16.60;86.70
13707;DHT22;6925;47.816;13.072;2023-05-07T07:46:09;16.60;86.60
13707;DHT22;6925;47.816;13.072;2023-05-07T07:48:36;16.70;86.50
13707;DHT22;6925;47.816;13.072;2023-05-07T07:51:03;16.70;86.50
13707;DHT22;6925;47.816;13.072;2023-05-07T07:53:31;16.80;86.20
13707;DHT22;6925;47.816;13.072;2023-05-07T07:55:59;16.80;86.20
13707;DHT22;6925;47.816;13.072;2023-05-07T07:58:27;16.90;86.50
13707;DHT22;6925;47.816;13.072;2023-05-07T08:00:54;17.00;85.70
13707;DHT22;6925;47.816;13.072;2023-05-07T08:03:21;17.10;85.50
13707;DHT22;6925;47.816;13.072;2023-05-07T08:05:48;17.20;85.20
13707;DHT22;6925;47.816;13.072;2023-05-07T08:08:16;17.30;85.70
13707;DHT22;6925;47.816;13.072;2023-05-07T08:10:43;17.30;85.70
13707;DHT22;6925;47.816;13.072;2023-05-07T08:13:12;17.40;84.40
13707;DHT22;6925;47.816;13.072;2023-05-07T08:15:39;17.50;84.60
13707;DHT22;6925;47.816;13.072;2023-05-07T08:18:05;17.50;84.00
13707;DHT22;6925;47.816;13.072;2023-05-07T08:20:33;17.50;84.30
13707;DHT22;6925;47.816;13.072;2023-05-07T08:23:05;17.60;85.80
13707;DHT22;6925;47.816;13.072;2023-05-07T08:25:33;17.70;84.10
13707;DHT22;6925;47.816;13.072;2023-05-07T08:28:00;17.70;83.10
13707;DHT22;6925;47.816;13.072;2023-05-07T08:30:30;17.70;83.40
13707;DHT22;6925;47.816;13.072;2023-05-07T08:32:57;17.90;83.90
13707;DHT22;6925;47.816;13.072;2023-05-07T08:35:24;17.90;83.60
13707;DHT22;6925;47.816;13.072;2023-05-07T08:37:52;18.00;83.70
13707;DHT22;6925;47.816;13.072;2023-05-07T08:40:19;18.10;83.50
13707;DHT22;6925;47.816;13.072;2023-05-07T08:42:48;18.20;83.70
13707;DHT22;6925;47.816;13.072;2023-05-07T08:45:15;18.30;83.50
13707;DHT22;6925;47.816;13.072;2023-05-07T08:47:48;18.40;82.70
13707;DHT22;6925;47.816;13.072;2023-05-07T08:50:17;18.40;83.00
13707;DHT22;6925;47.816;13.072;2023-05-07T08:52:45;18.50;82.80
13707;DHT22;6925;47.816;13.072;2023-05-07T08:55:13;18.70;82.50
13707;DHT22;6925;47.816;13.072;2023-05-07T08:57:40;18.80;82.90
13707;DHT22;6925;47.816;13.072;2023-05-07T09:00:08;18.90;82.50
13707;DHT22;6925;47.816;13.072;2023-05-07T09:02:37;19.10;81.40
13707;DHT22;6925;47.816;13.072;2023-05-07T09:05:06;19.20;81.70
13707;DHT22;6925;47.816;13.072;2023-05-07T09:07:34;19.40;80.80
13707;DHT22;6925;47.816;13.072;2023-05-07T09:10:02;19.60;77.30
13707;DHT22;6925;47.816;13.072;2023-05-07T09:12:29;19.70;77.10
13707;DHT22;6925;47.816;13.072;2023-05-07T09:14:57;19.80;77.40
13707;DHT22;6925;47.816;13.072;2023-05-07T09:17:25;20.00;76.30
13707;DHT22;6925;47.816;13.072;2023-05-07T09:19:53;20.20;77.60
13707;DHT22;6925;47.816;13.072;2023-05-07T09:22:21;20.30;75.80
13707;DHT22;6925;47.816;13.072;2023-05-07T09:24:49;20.50;74.60
13707;DHT22;6925;47.816;13.072;2023-05-07T09:27:17;20.60;74.30
13707;DHT22;6925;47.816;13.072;2023-05-07T09:29:44;20.80;74.00
13707;DHT22;6925;47.816;13.072;2023-05-07T09:32:11;20.90;74.30
13707;DHT22;6925;47.816;13.072;2023-05-07T09:34:39;21.10;75.20
13707;DHT22;6925;47.816;13.072;2023-05-07T09:37:06;21.20;72.30
13707;DHT22;6925;47.816;13.072;2023-05-07T09:39:41;21.40;72.50
13707;DHT22;6925;47.816;13.072;2023-05-07T09:42:08;21.50;72.60
13707;DHT22;6925;47.816;13.072;2023-05-07T09:44:37;21.60;72.80
13707;DHT22;6925;47.816;13.072;2023-05-07T09:47:05;21.80;71.10
13707;DHT22;6925;47.816;13.072;2023-05-07T09:49:35;21.90;70.80
13707;DHT22;6925;47.816;13.072;2023-05-07T09:52:03;22.00;69.40
13707;DHT22;6925;47.816;13.072;2023-05-07T09:54:32;22.10;68.40
13707;DHT22;6925;47.816;13.072;2023-05-07T09:57:01;22.20;69.40
13707;DHT22;6925;47.816;13.072;2023-05-07T09:59:30;22.30;68.30
13707;DHT22;6925;47.816;13.072;2023-05-07T10:01:59;22.50;65.50
13707;DHT22;6925;47.816;13.072;2023-05-07T10:04:27;22.60;66.10
13707;DHT22;6925;47.816;13.072;2023-05-07T10:06:55;22.80;63.70
13707;DHT22;6925;47.816;13.072;2023-05-07T10:09:24;22.90;63.70
13707;DHT22;6925;47.816;13.072;2023-05-07T10:11:52;23.00;64.90
13707;DHT22;6925;47.816;13.072;2023-05-07T10:14:22;23.20;65.40
13707;DHT22;6925;47.816;13.072;2023-05-07T10:16:49;23.40;63.50
13707;DHT22;6925;47.816;13.072;2023-05-07T10:19:18;23.50;63.90
13707;DHT22;6925;47.816;13.072;2023-05-07T10:21:54;23.70;64.80
13707;DHT22;6925;47.816;13.072;2023-05-07T10:24:25;23.80;62.50
13707;DHT22;6925;47.816;13.072;2023-05-07T10:26:53;23.90;63.70
13707;DHT22;6925;47.816;13.072;2023-05-07T10:29:34;24.00;63.00
13707;DHT22;6925;47.816;13.072;2023-05-07T10:32:19;24.10;63.30
13707;DHT22;6925;47.816;13.072;2023-05-07T10:34:55;24.30;63.00
13707;DHT22;6925;47.816;13.072;2023-05-07T10:37:24;24.40;60.70
13707;DHT22;6925;47.816;13.072;2023-05-07T10:39:52;24.50;59.90
13707;DHT22;6925;47.816;13.072;2023-05-07T10:42:19;24.70;59.80
13707;DHT22;6925;47.816;13.072;2023-05-07T10:44:47;24.80;59.10
13707;DHT22;6925;47.816;13.072;2023-05-07T10:47:16;24.80;58.10
13707;DHT22;6925;47.816;13.072;2023-05-07T10:50:20;24.90;58.70
13707;DHT22;6925;47.816;13.072;2023-05-07T10:55:51;25.00;58.70
13707;DHT22;6925;47.816;13.072;2023-05-07T10:58:25;25.00;59.20
13707;DHT22;6925;47.816;13.072;2023-05-07T11:00:58;24.90;59.00
13707;DHT22;6925;47.816;13.072;2023-05-07T11:03:25;24.90;58.80
13707;DHT22;6925;47.816;13.072;2023-05-07T11:06:14;25.10;58.20
13707;DHT22;6925;47.816;13.072;2023-05-07T11:08:53;25.10;58.10
13707;DHT22;6925;47.816;13.072;2023-05-07T11:11:44;25.20;58.00
13707;DHT22;6925;47.816;13.072;2023-05-07T11:14:11;25.40;57.90
13707;DHT22;6925;47.816;13.072;2023-05-07T11:16:41;25.40;56.70
13707;DHT22;6925;47.816;13.072;2023-05-07T11:19:08;25.40;57.60
13707;DHT22;6925;47.816;13.072;2023-05-07T11:21:36;25.40;57.10
13707;DHT22;6925;47.816;13.072;2023-05-07T11:24:04;25.40;56.10
13707;DHT22;6925;47.816;13.072;2023-05-07T11:26:42;25.60;56.00
13707;DHT22;6925;47.816;13.072;2023-05-07T11:29:15;25.60;55.40
13707;DHT22;6925;47.816;13.072;2023-05-07T11:31:48;25.90;55.60
13707;DHT22;6925;47.816;13.072;2023-05-07T11:34:21;25.90;55.00
13707;DHT22;6925;47.816;13.072;2023-05-07T11:36:49;25.90;54.30
13707;DHT22;6925;47.816;13.072;2023-05-07T11:39:30;25.90;54.10
13707;DHT22;6925;47.816;13.072;2023-05-07T11:41:59;25.80;52.90
13707;DHT22;6925;47.816;13.072;2023-05-07T11:44:42;25.80;53.00
13707;DHT22;6925;47.816;13.072;2023-05-07T11:47:17;25.80;52.70
13707;DHT22;6925;47.816;13.072;2023-05-07T11:49:47;25.90;54.20
13707;DHT22;6925;47.816;13.072;2023-05-07T11:52:14;26.10;54.60
13707;DHT22;6925;47.816;13.072;2023-05-07T11:54:44;26.30;53.20
13707;DHT22;6925;47.816;13.072;2023-05-07T11:57:15;26.30;51.60
13707;DHT22;6925;47.816;13.072;2023-05-07T11:59:43;26.50;51.40
13707;DHT22;6925;47.816;13.072;2023-05-07T12:02:13;26.80;50.80
13707;DHT22;6925;47.816;13.072;2023-05-07T12:04:41;26.80;50.50
13707;DHT22;6925;47.816;13.072;2023-05-07T12:07:11;26.90;50.00
13707;DHT22;6925;47.816;13.072;2023-05-07T12:09:39;26.90;49.40
13707;DHT22;6925;47.816;13.072;2023-05-07T12:12:06;26.90;50.90
13707;DHT22;6925;47.816;13.072;2023-05-07T12:14:37;27.00;50.50
13707;DHT22;6925;47.816;13.072;2023-05-07T12:17:05;27.00;50.30
13707;DHT22;6925;47.816;13.072;2023-05-07T12:19:35;27.00;50.10
13707;DHT22;6925;47.816;13.072;2023-05-07T12:22:03;27.10;51.00
13707;DHT22;6925;47.816;13.072;2023-05-07T12:24:43;27.10;50.30
13707;DHT22;6925;47.816;13.072;2023-05-07T12:27:10;27.30;50.30
13707;DHT22;6925;47.816;13.072;2023-05-07T12:29:37;27.30;49.70
13707;DHT22;6925;47.816;13.072;2023-05-07T12:32:06;27.40;49.60
13707;DHT22;6925;47.816;13.072;2023-05-07T12:34:35;27.40;49.30
13707;DHT22;6925;47.816;13.072;2023-05-07T12:37:02;27.30;47.60
13707;DHT22;6925;47.816;13.072;2023-05-07T12:39:30;27.30;48.90
13707;DHT22;6925;47.816;13.072;2023-05-07T12:41:59;27.30;47.60
13707;DHT22;6925;47.816;13.072;2023-05-07T12:44:30;27.20;47.80
13707;DHT22;6925;47.816;13.072;2023-05-07T12:47:01;27.10;46.90
13707;DHT22;6925;47.816;13.072;2023-05-07T12:49:28;27.10;47.60
13707;DHT22;6925;47.816;13.072;2023-05-07T12:51:56;27.10;47.30
13707;DHT22;6925;47.816;13.072;2023-05-07T12:54:29;27.20;48.20
13707;DHT22;6925;47.816;13.072;2023-05-07T12:57:03;27.20;46.40
13707;DHT22;6925;47.816;13.072;2023-05-07T12:59:32;27.40;47.00
13707;DHT22;6925;47.816;13.072;2023-05-07T13:02:00;27.40;47.00
13707;DHT22;6925;47.816;13.072;2023-05-07T13:04:27;27.60;46.30
13707;DHT22;6925;47.816;13.072;2023-05-07T13:06:56;27.70;45.70
13707;DHT22;6925;47.816;13.072;2023-05-07T13:09:23;27.70;46.10
13707;DHT22;6925;47.816;13.072;2023-05-07T13:11:50;27.80;47.00
13707;DHT22;6925;47.816;13.072;2023-05-07T13:14:17;27.90;46.60
13707;DHT22;6925;47.816;13.072;2023-05-07T13:16:46;28.00;46.10
13707;DHT22;6925;47.816;13.072;2023-05-07T13:19:13;28.10;47.10
13707;DHT22;6925;47.816;13.072;2023-05-07T13:21:40;28.10;46.70
13707;DHT22;6925;47.816;13.072;2023-05-07T13:24:09;28.00;46.10
13707;DHT22;6925;47.816;13.072;2023-05-07T13:26:36;28.00;46.40
13707;DHT22;6925;47.816;13.072;2023-05-07T13:29:03;28.00;45.60
13707;DHT22;6925;47.816;13.072;2023-05-07T13:31:30;27.90;44.70
13707;DHT22;6925;47.816;13.072;2023-05-07T13:33:57;27.90;44.60
13707;DHT22;6925;47.816;13.072;2023-05-07T13:36:24;27.90;46.20
13707;DHT22;6925;47.816;13.072;2023-05-07T13:38:52;27.90;44.50
13707;DHT22;6925;47.816;13.072;2023-05-07T13:41:20;27.90;45.40
13707;DHT22;6925;47.816;13.072;2023-05-07T13:43:47;27.90;45.00
13707;DHT22;6925;47.816;13.072;2023-05-07T13:46:14;28.00;45.00
13707;DHT22;6925;47.816;13.072;2023-05-07T13:48:42;28.00;43.90
13707;DHT22;6925;47.816;13.072;2023-05-07T13:51:09;28.00;43.90
13707;DHT22;6925;47.816;13.072;2023-05-07T13:53:36;28.00;44.40
13707;DHT22;6925;47.816;13.072;2023-05-07T13:56:03;28.00;43.30
13707;DHT22;6925;47.816;13.072;2023-05-07T13:58:32;28.00;44.10
13707;DHT22;6925;47.816;13.072;2023-05-07T14:01:02;28.00;44.50
13707;DHT22;6925;47.816;13.072;2023-05-07T14:03:29;28.10;44.70
13707;DHT22;6925;47.816;13.072;2023-05-07T14:05:57;28.10;44.30
13707;DHT22;6925;47.816;13.072;2023-05-07T14:08:25;28.10;44.40
13707;DHT22;6925;47.816;13.072;2023-05-07T14:10:52;28.10;44.70
13707;DHT22;6925;47.816;13.072;2023-05-07T14:13:19;28.10;44.00
13707;DHT22;6925;47.816;13.072;2023-05-07T14:15:48;28.00;44.50
13707;DHT22;6925;47.816;13.072;2023-05-07T14:18:15;28.00;44.70
13707;DHT22;6925;47.816;13.072;2023-05-07T14:20:42;27.90;44.00
13707;DHT22;6925;47.816;13.072;2023-05-07T14:23:12;27.90;44.50
13707;DHT22;6925;47.816;13.072;2023-05-07T14:25:39;27.70;43.90
13707;DHT22;6925;47.816;13.072;2023-05-07T14:28:08;27.60;44.30
13707;DHT22;6925;47.816;13.072;2023-05-07T14:30:35;27.60;44.70
13707;DHT22;6925;47.816;13.072;2023-05-07T14:33:04;27.70;44.90
13707;DHT22;6925;47.816;13.072;2023-05-07T14:35:31;27.70;44.20
13707;DHT22;6925;47.816;13.072;2023-05-07T14:37:58;27.70;44.40
13707;DHT22;6925;47.816;13.072;2023-05-07T14:40:25;27.70;44.90
13707;DHT22;6925;47.816;13.072;2023-05-07T14:42:52;27.70;44.30
13707;DHT22;6925;47.816;13.072;2023-05-07T14:45:21;27.50;44.20
13707;DHT22;6925;47.816;13.072;2023-05-07T14:47:48;27.50;44.50
13707;DHT22;6925;47.816;13.072;2023-05-07T14:50:17;27.50;44.70
13707;DHT22;6925;47.816;13.072;2023-05-07T14:52:44;27.40;44.70
13707;DHT22;6925;47.816;13.072;2023-05-07T14:55:11;27.30;44.50
13707;DHT22;6925;47.816;13.072;2023-05-07T14:57:38;27.30;45.00
13707;DHT22;6925;47.816;13.072;2023-05-07T15:00:07;27.20;45.30
13707;DHT22;6925;47.816;13.072;2023-05-07T15:02:35;27.20;45.50
13707;DHT22;6925;47.816;13.072;2023-05-07T15:05:02;27.10;45.60
13707;DHT22;6925;47.816;13.072;2023-05-07T15:07:31;27.00;45.50
13707;DHT22;6925;47.816;13.072;2023-05-07T15:09:59;26.90;45.10
13707;DHT22;6925;47.816;13.072;2023-05-07T15:12:26;26.80;45.10
13707;DHT22;6925;47.816;13.072;2023-05-07T15:14:54;26.70;46.20
13707;DHT22;6925;47.816;13.072;2023-05-07T15:17:21;26.60;46.60
13707;DHT22;6925;47.816;13.072;2023-05-07T15:19:48;26.40;46.50
13707;DHT22;6925;47.816;13.072;2023-05-07T15:22:15;26.30;46.50
13707;DHT22;6925;47.816;13.072;2023-05-07T15:24:43;26.20;45.90
13707;DHT22;6925;47.816;13.072;2023-05-07T15:27:11;26.00;46.40
13707;DHT22;6925;47.816;13.072;2023-05-07T15:29:38;25.90;46.50
13707;DHT22;6925;47.816;13.072;2023-05-07T15:32:05;25.80;47.00
13707;DHT22;6925;47.816;13.072;2023-05-07T15:34:32;25.70;47.30
13707;DHT22;6925;47.816;13.072;2023-05-07T15:36:59;25.60;46.70
13707;DHT22;6925;47.816;13.072;2023-05-07T15:39:26;25.40;46.90